Time;durP1;ratioP1;P1;durP2;ratioP2;P2;SDS_P1;SDS_P2;PMS_P1;PMS_P2;Temp;Humidity;BMP_temperature;BMP_pressure;BME280_temperature;BME280_humidity;BME280_pressure;Samples;Min_cycle;Max_cycle;Signal;HPM_P1;HPM_P2
2021/01/31 00:00:31;;;;;;;42.05;17.40;;;0.70;99.90;;;;;;5091423;28;20039;-75
2021/01/31 00:02:58;;;;;;;35.85;18.88;;;0.70;99.90;;;;;;5082229;28;20031;-73
2021/01/31 00:05:25;;;;;;;36.42;17.65;;;0.80;99.90;;;;;;5080116;28;20036;-74
2021/01/31 00:07:52;;;;;;;35.10;16.30;;;0.80;99.90;;;;;;5086592;28;20029;-73
2021/01/31 00:10:25;;;;;;;39.88;18.50;;;0.70;99.90;;;;;;5083771;28;20036;-74
2021/01/31 00:12:52;;;;;;;34.70;16.98;;;0.80;99.90;;;;;;5084038;28;20032;-73
2021/01/31 00:15:21;;;;;;;34.25;17.10;;;0.80;99.90;;;;;;5074674;28;20474;-74
2021/01/31 00:17:48;;;;;;;39.58;17.23;;;0.80;99.90;;;;;;5075492;28;20043;-73
2021/01/31 00:20:16;;;;;;;38.15;16.98;;;0.80;99.90;;;;;;5075001;28;20353;-73
2021/01/31 00:22:43;;;;;;;37.42;17.38;;;0.80;99.90;;;;;;5074903;28;20039;-73
2021/01/31 00:25:10;;;;;;;37.80;18.35;;;0.90;99.90;;;;;;5089979;28;20374;-73
2021/01/31 00:27:36;;;;;;;39.90;17.20;;;0.80;99.90;;;;;;5087527;28;20047;-74
2021/01/31 00:30:09;;;;;;;49.05;19.77;;;0.90;99.90;;;;;;5080330;28;20495;-75
2021/01/31 00:32:36;;;;;;;44.38;18.10;;;0.90;99.90;;;;;;5088925;28;20426;-75
2021/01/31 00:35:02;;;;;;;40.72;19.00;;;0.90;99.90;;;;;;5074945;28;20040;-74
2021/01/31 00:37:28;;;;;;;36.50;18.48;;;0.90;99.90;;;;;;5082218;28;20036;-74
2021/01/31 00:39:54;;;;;;;46.30;18.92;;;0.90;99.90;;;;;;5075111;28;20047;-74
2021/01/31 00:42:21;;;;;;;42.35;19.20;;;1.00;99.90;;;;;;5087146;28;20036;-75
2021/01/31 00:44:51;;;;;;;45.97;20.00;;;0.90;99.90;;;;;;5088772;28;20048;-74
2021/01/31 00:47:19;;;;;;;42.53;20.13;;;1.00;99.90;;;;;;5083428;28;20032;-77
2021/01/31 00:49:50;;;;;;;40.50;18.95;;;0.90;99.90;;;;;;5080373;28;20358;-74
2021/01/31 00:52:20;;;;;;;41.92;18.63;;;1.00;99.90;;;;;;5088036;28;20067;-74
2021/01/31 00:54:46;;;;;;;47.10;19.70;;;1.00;99.90;;;;;;5074447;28;20474;-74
2021/01/31 00:57:13;;;;;;;44.95;20.98;;;1.00;99.90;;;;;;5073108;28;20126;-73
2021/01/31 00:59:39;;;;;;;45.50;19.23;;;1.00;99.90;;;;;;5074124;28;20035;-74
2021/01/31 01:02:09;;;;;;;50.58;21.20;;;0.90;99.90;;;;;;5090072;28;20051;-74
2021/01/31 01:04:36;;;;;;;44.30;19.50;;;1.00;99.90;;;;;;5072843;28;20055;-74
2021/01/31 01:07:08;;;;;;;45.13;19.75;;;1.00;99.90;;;;;;5081549;28;20470;-74
2021/01/31 01:09:34;;;;;;;45.75;20.13;;;1.00;99.90;;;;;;5074303;28;20028;-74
2021/01/31 01:12:00;;;;;;;39.97;18.75;;;1.00;99.90;;;;;;5074325;28;20043;-74
2021/01/31 01:14:26;;;;;;;44.95;20.25;;;1.00;99.90;;;;;;5073954;28;20036;-74
2021/01/31 01:16:52;;;;;;;46.28;19.75;;;1.00;99.90;;;;;;5082056;28;20039;-74
2021/01/31 01:19:19;;;;;;;40.42;19.52;;;1.00;99.90;;;;;;5081202;28;20029;-74
2021/01/31 01:21:45;;;;;;;42.22;18.02;;;1.00;99.90;;;;;;5074083;28;20028;-74
2021/01/31 01:24:11;;;;;;;44.95;19.15;;;0.90;99.90;;;;;;5074302;28;20041;-74
2021/01/31 01:26:37;;;;;;;44.40;19.38;;;1.00;99.90;;;;;;5073624;28;20186;-75
2021/01/31 01:29:03;;;;;;;45.28;19.27;;;1.00;99.90;;;;;;5089298;28;20032;-74
2021/01/31 01:31:29;;;;;;;42.00;17.70;;;1.00;99.90;;;;;;5073613;28;20385;-74
2021/01/31 01:33:56;;;;;;;42.85;18.88;;;1.00;99.90;;;;;;5073470;28;20033;-74
2021/01/31 01:36:22;;;;;;;43.53;18.05;;;1.00;99.90;;;;;;5073143;28;20035;-75
2021/01/31 01:38:48;;;;;;;43.22;19.52;;;1.00;99.90;;;;;;5074440;28;20048;-74
2021/01/31 01:41:14;;;;;;;41.30;17.85;;;1.00;99.90;;;;;;5073642;28;20032;-74
2021/01/31 01:43:41;;;;;;;49.53;20.15;;;0.90;99.90;;;;;;5072825;28;20476;-74
2021/01/31 01:46:19;;;;;;;42.90;19.48;;;0.90;99.90;;;;;;5073890;28;20378;-75
2021/01/31 01:48:53;;;;;;;47.92;19.95;;;0.90;99.90;;;;;;5089499;28;20035;-74
2021/01/31 01:51:29;;;;;;;46.83;19.55;;;1.00;99.90;;;;;;5073111;28;20025;-75
2021/01/31 01:53:58;;;;;;;47.28;19.05;;;1.00;99.90;;;;;;5073230;28;20040;-74
2021/01/31 01:56:42;;;;;;;46.33;20.25;;;1.00;99.90;;;;;;5073026;28;20047;-74
2021/01/31 01:59:10;;;;;;;47.08;19.08;;;0.90;99.90;;;;;;5074134;28;20401;-74
2021/01/31 02:01:46;;;;;;;51.42;20.55;;;0.90;99.90;;;;;;5089721;28;20033;-74
2021/01/31 02:04:12;;;;;;;45.22;18.95;;;0.90;99.90;;;;;;5072483;28;20052;-74
2021/01/31 02:06:39;;;;;;;48.45;19.85;;;0.90;99.90;;;;;;5072560;28;20116;-74
2021/01/31 02:09:06;;;;;;;49.97;20.42;;;0.90;99.90;;;;;;5093048;28;20040;-72
2021/01/31 02:11:33;;;;;;;40.60;19.30;;;0.90;99.90;;;;;;5073157;28;20025;-73
2021/01/31 02:14:08;;;;;;;56.90;21.50;;;0.90;99.90;;;;;;5073100;28;20039;-73
2021/01/31 02:16:38;;;;;;;51.05;20.45;;;0.90;99.90;;;;;;5072400;28;20032;-73
2021/01/31 02:19:16;;;;;;;43.78;19.77;;;0.90;99.90;;;;;;5072637;28;20035;-73
2021/01/31 02:21:58;;;;;;;47.83;20.42;;;0.90;99.90;;;;;;5072374;28;20461;-74
2021/01/31 02:25:01;;;;;;;49.17;20.17;;;0.90;99.90;;;;;;5072305;28;20032;-74
2021/01/31 02:27:48;;;;;;;50.45;18.65;;;0.80;99.90;;;;;;5089308;28;20032;-74
2021/01/31 02:30:38;;;;;;;53.25;21.90;;;0.80;99.90;;;;;;5072746;28;20045;-74
2021/01/31 02:33:39;;;;;;;52.65;21.60;;;0.80;99.90;;;;;;5080110;28;20024;-74
2021/01/31 02:36:11;;;;;;;38.20;16.52;;;0.80;99.90;;;;;;5078348;28;20052;-74
2021/01/31 02:39:01;;;;;;;46.13;20.30;;;0.80;99.90;;;;;;5072143;28;20063;-74
2021/01/31 02:41:33;;;;;;;49.35;21.63;;;0.80;99.90;;;;;;5072176;28;20466;-74
2021/01/31 02:44:05;;;;;;;44.25;21.00;;;0.80;99.90;;;;;;5087720;28;20385;-74
2021/01/31 02:46:47;;;;;;;46.15;21.75;;;0.90;99.90;;;;;;5073663;28;20028;-74
2021/01/31 02:49:20;;;;;;;;;;;0.80;99.90;;;;;;5079580;28;20039;-74
2021/01/31 02:51:54;;;;;;;45.72;19.15;;;0.80;99.90;;;;;;5087258;28;19908;-74
2021/01/31 02:54:24;;;;;;;42.50;19.83;;;0.80;99.90;;;;;;5075734;28;20056;-76
2021/01/31 02:56:55;;;;;;;41.05;19.95;;;0.80;99.90;;;;;;5082807;28;20032;-74
2021/01/31 02:59:48;;;;;;;46.53;19.17;;;0.80;99.90;;;;;;5080090;28;20028;-74
2021/01/31 03:02:19;;;;;;;44.75;20.70;;;0.80;99.90;;;;;;5071627;28;20043;-73
2021/01/31 03:04:52;;;;;;;48.60;19.90;;;0.80;99.90;;;;;;5071995;28;20366;-74
2021/01/31 03:07:25;;;;;;;48.08;19.90;;;0.80;99.90;;;;;;5072355;28;20037;-74
2021/01/31 03:10:20;;;;;;;47.92;20.25;;;0.80;99.90;;;;;;5072803;28;20036;-75
2021/01/31 03:12:56;;;;;;;51.92;20.85;;;0.80;99.90;;;;;;5072273;28;20028;-75
2021/01/31 03:15:26;;;;;;;46.50;20.42;;;0.80;99.90;;;;;;5071769;28;20032;-75
2021/01/31 03:18:10;;;;;;;49.47;21.50;;;0.80;99.90;;;;;;5072150;28;20033;-74
2021/01/31 03:20:41;;;;;;;51.20;20.63;;;0.80;99.90;;;;;;5071842;28;20036;-76
2021/01/31 03:23:08;;;;;;;49.20;21.75;;;0.70;99.90;;;;;;5072271;28;20051;-74
2021/01/31 03:26:14;;;;;;;55.65;23.63;;;0.80;99.90;;;;;;5071490;28;20032;-74
2021/01/31 03:28:40;;;;;;;48.55;19.25;;;0.80;99.90;;;;;;5007641;28;20053;-74
2021/01/31 03:31:09;;;;;;;51.17;20.13;;;0.70;99.90;;;;;;5070537;28;20045;-74
2021/01/31 03:34:00;;;;;;;45.05;20.10;;;0.70;99.90;;;;;;5071614;28;20035;-74
2021/01/31 03:36:28;;;;;;;46.13;19.25;;;0.70;99.90;;;;;;5077526;28;20139;-74
2021/01/31 03:38:56;;;;;;;41.63;19.75;;;0.70;99.90;;;;;;5088427;28;20122;-74
2021/01/31 03:41:26;;;;;;;46.10;21.05;;;0.70;99.90;;;;;;5071546;28;20033;-74
2021/01/31 03:43:53;;;;;;;49.33;20.70;;;0.60;99.90;;;;;;5072077;28;20045;-74
2021/01/31 03:46:35;;;;;;;49.85;20.30;;;0.70;99.90;;;;;;5089162;28;20035;-74
2021/01/31 03:49:24;;;;;;;49.72;20.27;;;0.60;99.90;;;;;;5074408;28;20052;-74
2021/01/31 03:51:50;;;;;;;53.53;22.00;;;0.60;99.90;;;;;;5079883;28;20036;-74
2021/01/31 03:54:17;;;;;;;50.25;20.15;;;0.60;99.90;;;;;;5073492;28;20386;-74
2021/01/31 03:56:54;;;;;;;47.20;18.92;;;0.60;99.90;;;;;;5071287;28;20044;-74
2021/01/31 03:59:39;;;;;;;47.92;19.95;;;0.60;99.90;;;;;;5072039;28;20032;-74
2021/01/31 04:02:07;;;;;;;45.78;19.50;;;0.50;99.90;;;;;;5071985;28;20502;-74
2021/01/31 04:04:47;;;;;;;50.55;20.90;;;0.50;99.90;;;;;;5086141;28;20040;-74
2021/01/31 04:07:19;;;;;;;49.60;20.77;;;0.50;99.90;;;;;;5071771;28;20036;-74
2021/01/31 04:09:46;;;;;;;51.17;21.27;;;0.50;99.90;;;;;;5085462;28;20052;-74
2021/01/31 04:12:16;;;;;;;51.55;21.75;;;0.50;99.90;;;;;;5074093;28;20044;-74
2021/01/31 04:15:07;;;;;;;51.10;19.98;;;0.50;99.90;;;;;;5074627;28;20036;-73
2021/01/31 04:17:34;;;;;;;46.88;21.05;;;0.60;99.90;;;;;;5074031;28;20052;-73
2021/01/31 04:20:01;;;;;;;50.83;20.50;;;0.60;99.90;;;;;;5075006;28;20032;-73
2021/01/31 04:22:27;;;;;;;53.47;21.23;;;0.60;99.90;;;;;;5074484;28;20028;-74
2021/01/31 04:24:53;;;;;;;53.95;22.35;;;0.60;99.90;;;;;;5075339;28;20465;-73
2021/01/31 04:27:19;;;;;;;51.28;21.58;;;0.60;99.90;;;;;;5075301;28;20369;-76
2021/01/31 04:29:45;;;;;;;48.60;21.55;;;0.60;99.90;;;;;;5088521;28;20036;-74
2021/01/31 04:32:13;;;;;;;46.83;21.67;;;0.60;99.90;;;;;;5078385;28;20032;-74
2021/01/31 04:34:39;;;;;;;44.45;20.63;;;0.70;99.90;;;;;;5087928;28;20051;-74
2021/01/31 04:37:05;;;;;;;46.88;20.05;;;0.60;99.90;;;;;;5076849;28;20043;-74
2021/01/31 04:39:31;;;;;;;45.33;19.10;;;0.60;99.90;;;;;;5093906;28;20051;-75
2021/01/31 04:41:57;;;;;;;45.33;19.60;;;0.70;99.90;;;;;;5086052;28;20032;-74
2021/01/31 04:44:24;;;;;;;43.90;18.83;;;0.70;99.90;;;;;;5083925;28;20039;-75
2021/01/31 04:46:52;;;;;;;49.08;20.00;;;0.70;99.90;;;;;;5074354;28;20025;-74
2021/01/31 04:49:37;;;;;;;47.05;21.25;;;0.60;99.90;;;;;;5074822;28;20029;-74
2021/01/31 04:52:20;;;;;;;42.22;21.05;;;0.70;99.90;;;;;;5074700;28;20028;-74
2021/01/31 04:55:08;;;;;;;44.08;20.35;;;0.60;99.90;;;;;;5089243;28;20048;-74
2021/01/31 04:57:39;;;;;;;48.38;20.48;;;0.60;99.90;;;;;;5074099;28;20029;-74
2021/01/31 05:00:16;;;;;;;45.15;19.90;;;0.70;99.90;;;;;;5090498;28;20384;-74
2021/01/31 05:02:47;;;;;;;39.83;18.45;;;0.70;99.90;;;;;;5080048;28;20044;-74
2021/01/31 05:05:25;;;;;;;45.55;20.17;;;0.70;99.90;;;;;;5074620;28;20032;-74
2021/01/31 05:08:00;;;;;;;40.83;19.40;;;0.70;99.90;;;;;;5074671;28;20033;-75
2021/01/31 05:10:27;;;;;;;42.35;18.73;;;0.60;99.90;;;;;;5073975;28;20342;-74
2021/01/31 05:13:32;;;;;;;45.92;21.25;;;0.60;99.90;;;;;;5074164;28;20033;-74
2021/01/31 05:16:10;;;;;;;45.10;19.77;;;0.70;99.90;;;;;;5089439;28;20051;-74
2021/01/31 05:18:59;;;;;;;43.10;20.40;;;0.70;99.90;;;;;;5084159;28;20039;-74
2021/01/31 05:21:30;;;;;;;48.15;21.30;;;0.70;99.90;;;;;;5076056;28;20047;-74
2021/01/31 05:24:18;;;;;;;43.03;20.58;;;0.70;99.90;;;;;;5072971;28;20032;-74
2021/01/31 05:26:51;;;;;;;40.90;18.27;;;0.70;99.90;;;;;;5087310;28;20044;-74
2021/01/31 05:29:22;;;;;;;50.10;19.67;;;0.70;99.90;;;;;;5074014;28;20075;-74
2021/01/31 05:32:00;;;;;;;37.85;18.42;;;0.70;99.90;;;;;;5090370;28;20029;-74
2021/01/31 05:34:43;;;;;;;42.08;18.55;;;0.70;99.90;;;;;;5073485;28;20053;-74
2021/01/31 05:37:20;;;;;;;42.45;19.40;;;0.70;99.90;;;;;;5073462;28;20032;-74
2021/01/31 05:39:56;;;;;;;38.53;18.20;;;0.70;99.90;;;;;;5081492;28;20028;-75
2021/01/31 05:42:26;;;;;;;39.15;18.60;;;0.70;99.90;;;;;;5073546;28;20041;-75
2021/01/31 05:45:17;;;;;;;39.20;19.52;;;0.70;99.90;;;;;;5077694;28;20031;-74
2021/01/31 05:47:44;;;;;;;33.88;16.67;;;0.70;99.90;;;;;;5075195;28;20037;-74
2021/01/31 05:50:30;;;;;;;32.70;18.40;;;0.70;99.90;;;;;;5073276;28;20386;-74
2021/01/31 05:52:56;;;;;;;37.00;18.52;;;0.70;99.90;;;;;;5073235;28;20032;-74
2021/01/31 05:55:28;;;;;;;35.67;18.63;;;0.70;99.90;;;;;;5073524;28;20035;-74
2021/01/31 05:58:13;;;;;;;37.50;17.65;;;0.70;99.90;;;;;;5073314;28;20044;-74
2021/01/31 06:00:40;;;;;;;32.00;16.27;;;0.70;99.90;;;;;;5073112;28;20040;-75
2021/01/31 06:03:09;;;;;;;36.33;17.75;;;0.70;99.90;;;;;;5081529;28;20409;-73
2021/01/31 06:05:36;;;;;;;33.17;16.52;;;0.70;99.90;;;;;;5072500;28;20036;-73
2021/01/31 06:08:11;;;;;;;36.72;17.75;;;0.70;99.90;;;;;;5073281;28;20029;-74
2021/01/31 06:10:40;;;;;;;37.03;17.50;;;0.70;99.90;;;;;;5080395;28;20028;-73
2021/01/31 06:13:21;;;;;;;33.70;17.40;;;0.70;99.90;;;;;;5084735;28;20039;-73
2021/01/31 06:16:15;;;;;;;32.50;17.35;;;0.70;99.90;;;;;;5077269;28;20062;-73
2021/01/31 06:18:49;;;;;;;33.83;18.58;;;0.70;99.90;;;;;;5072853;28;20040;-74
2021/01/31 06:21:19;;;;;;;33.40;16.85;;;0.70;99.90;;;;;;5084771;28;20028;-74
2021/01/31 06:23:51;;;;;;;37.65;18.42;;;0.70;99.90;;;;;;5074604;28;20465;-73
2021/01/31 06:26:29;;;;;;;36.88;18.33;;;0.70;99.90;;;;;;5072550;28;20040;-73
2021/01/31 06:29:05;;;;;;;30.95;16.60;;;0.70;99.90;;;;;;5072987;28;20028;-75
2021/01/31 06:31:37;;;;;;;29.20;16.17;;;0.70;99.90;;;;;;5072428;28;20043;-74
2021/01/31 06:34:03;;;;;;;31.48;17.02;;;0.70;99.90;;;;;;5072327;28;20051;-74
2021/01/31 06:36:45;;;;;;;29.52;16.52;;;0.70;99.90;;;;;;5072360;28;20055;-74
2021/01/31 06:39:45;;;;;;;33.60;17.40;;;0.70;99.90;;;;;;5072752;28;20040;-74
2021/01/31 06:42:55;;;;;;;30.63;16.50;;;0.70;99.90;;;;;;5072486;28;20394;-74
2021/01/31 06:45:30;;;;;;;29.15;16.00;;;0.70;99.90;;;;;;5072586;28;20237;-74
2021/01/31 06:48:27;;;;;;;30.08;16.30;;;0.70;99.90;;;;;;5083831;28;20051;-73
2021/01/31 06:51:35;;;;;;;27.48;14.82;;;0.70;99.90;;;;;;5072528;28;20039;-74
2021/01/31 06:54:29;;;;;;;34.35;16.80;;;0.80;99.90;;;;;;5083305;28;20036;-74
2021/01/31 06:57:12;;;;;;;32.08;16.23;;;0.70;99.90;;;;;;5082464;28;20048;-75
2021/01/31 07:00:25;;;;;;;34.15;17.38;;;0.70;99.90;;;;;;5086189;28;20398;-75
2021/01/31 07:03:14;;;;;;;36.17;17.17;;;0.80;99.90;;;;;;5072252;28;20036;-75
2021/01/31 07:06:15;;;;;;;35.67;17.23;;;0.70;99.90;;;;;;5071845;28;20184;-74
2021/01/31 07:08:45;;;;;;;;;;;0.70;99.90;;;;;;5072403;28;20040;-74
2021/01/31 07:11:17;;;;;;;29.67;15.27;;;0.70;99.90;;;;;;5071988;28;19908;-73
2021/01/31 07:13:57;;;;;;;31.52;16.40;;;0.80;99.90;;;;;;5071971;28;20027;-73
2021/01/31 07:16:39;;;;;;;34.60;16.38;;;0.70;99.90;;;;;;5072072;28;20037;-73
2021/01/31 07:19:37;;;;;;;32.85;17.58;;;0.70;99.90;;;;;;5085545;28;20056;-73
2021/01/31 07:22:16;;;;;;;33.35;17.23;;;0.70;99.90;;;;;;5072279;28;20032;-74
2021/01/31 07:24:47;;;;;;;32.17;15.43;;;0.80;99.90;;;;;;5080398;28;20032;-74
2021/01/31 07:27:17;;;;;;;33.83;17.08;;;0.70;99.90;;;;;;5075664;28;20045;-74
2021/01/31 07:30:00;;;;;;;34.03;18.98;;;0.80;99.90;;;;;;5071461;28;20032;-73
2021/01/31 07:32:34;;;;;;;34.55;18.38;;;0.80;99.90;;;;;;5070176;28;20485;-75
2021/01/31 07:35:08;;;;;;;30.52;15.98;;;0.90;99.90;;;;;;5081960;28;20045;-73
2021/01/31 07:37:37;;;;;;;35.33;17.70;;;0.80;99.90;;;;;;5090216;28;20468;-74
2021/01/31 07:40:22;;;;;;;29.52;16.42;;;0.80;99.90;;;;;;5075580;28;20028;-74
2021/01/31 07:42:54;;;;;;;32.40;17.42;;;0.90;99.90;;;;;;5072890;28;20024;-74
2021/01/31 07:45:24;;;;;;;32.13;17.27;;;0.70;99.90;;;;;;5081536;28;20389;-74
2021/01/31 07:48:29;;;;;;;31.80;16.80;;;0.80;99.90;;;;;;5074799;28;20025;-74
2021/01/31 07:50:57;;;;;;;26.73;16.77;;;0.80;99.90;;;;;;5076030;28;20048;-74
2021/01/31 07:53:31;;;;;;;32.83;18.08;;;0.80;99.90;;;;;;5085507;28;20028;-74
2021/01/31 07:56:27;;;;;;;32.20;18.17;;;0.80;99.90;;;;;;5080626;28;20040;-74
2021/01/31 07:58:56;;;;;;;30.17;16.33;;;0.80;99.90;;;;;;5075528;28;20033;-73
2021/01/31 08:01:40;;;;;;;33.45;17.08;;;0.80;99.90;;;;;;5075593;28;20040;-74
2021/01/31 08:04:16;;;;;;;29.77;15.65;;;0.80;99.90;;;;;;5075492;28;20037;-74
2021/01/31 08:06:42;;;;;;;25.75;14.98;;;0.90;99.90;;;;;;5074856;28;20039;-74
2021/01/31 08:09:24;;;;;;;32.58;16.17;;;0.90;99.90;;;;;;5089703;28;20044;-73
2021/01/31 08:12:00;;;;;;;30.95;15.85;;;0.90;99.90;;;;;;5074478;28;20039;-73
2021/01/31 08:15:03;;;;;;;30.40;16.92;;;0.90;99.90;;;;;;5075795;28;20040;-74
2021/01/31 08:17:55;;;;;;;28.77;14.73;;;0.90;99.90;;;;;;5074832;28;20044;-74
2021/01/31 08:20:31;;;;;;;;;;;0.90;99.90;;;;;;5088814;28;20119;-74
2021/01/31 08:23:24;;;;;;;29.60;16.42;;;1.00;99.90;;;;;;5083465;28;19916;-74
2021/01/31 08:26:02;;;;;;;30.85;18.25;;;1.00;99.90;;;;;;5063719;28;20390;-74
2021/01/31 08:28:36;;;;;;;32.15;17.17;;;1.00;99.90;;;;;;5089710;28;20049;-74
2021/01/31 08:31:03;;;;;;;30.27;16.30;;;1.00;99.90;;;;;;5075061;28;20044;-75
2021/01/31 08:33:30;;;;;;;28.27;16.80;;;1.00;99.90;;;;;;5085386;28;20032;-83
2021/01/31 08:36:08;;;;;;;31.20;17.98;;;1.00;99.90;;;;;;5102577;28;20054;-84
2021/01/31 08:38:41;;;;;;;30.00;14.95;;;1.10;99.90;;;;;;5089881;28;20043;-85
2021/01/31 08:41:17;;;;;;;28.88;17.50;;;1.00;99.90;;;;;;5110818;28;20038;-84
2021/01/31 08:43:48;;;;;;;28.75;16.23;;;1.10;99.90;;;;;;5099172;28;20036;-84
2021/01/31 08:46:29;;;;;;;25.83;14.45;;;1.20;99.90;;;;;;5098918;28;20051;-83
2021/01/31 08:49:01;;;;;;;30.00;17.63;;;1.20;99.90;;;;;;5104042;28;20036;-84
2021/01/31 08:51:36;;;;;;;25.80;15.00;;;1.30;99.90;;;;;;5097071;28;20036;-85
2021/01/31 08:54:08;;;;;;;26.27;15.45;;;1.30;99.90;;;;;;5081088;28;20048;-85
2021/01/31 08:56:46;;;;;;;24.30;13.93;;;1.40;99.90;;;;;;5077699;28;20035;-83
2021/01/31 08:59:33;;;;;;;25.67;16.00;;;1.40;99.90;;;;;;5075174;28;20345;-83
2021/01/31 09:02:17;;;;;;;24.58;14.68;;;1.50;99.90;;;;;;5078392;28;20044;-81
2021/01/31 09:04:59;;;;;;;23.70;14.55;;;1.50;99.90;;;;;;5074660;28;20024;-81
2021/01/31 09:07:28;;;;;;;;;;;1.60;99.90;;;;;;5074159;28;20032;-82
2021/01/31 09:10:06;;;;;;;29.13;17.77;;;1.60;99.90;;;;;;5084953;28;19908;-82
2021/01/31 09:12:32;;;;;;;26.67;15.95;;;1.70;99.90;;;;;;5090034;28;20413;-82
2021/01/31 09:15:13;;;;;;;22.40;13.23;;;1.70;99.90;;;;;;5084156;28;20024;-82
2021/01/31 09:17:40;;;;;;;;;;;1.80;99.90;;;;;;5083642;28;20036;-81
2021/01/31 09:20:18;;;;;;;22.05;13.07;;;1.90;99.90;;;;;;5087556;28;19916;-80
2021/01/31 09:22:50;;;;;;;23.83;14.75;;;1.90;99.90;;;;;;5074734;28;20485;-82
2021/01/31 09:25:20;;;;;;;22.10;13.60;;;2.10;99.90;;;;;;5088620;28;20508;-82
2021/01/31 09:27:55;;;;;;;25.60;14.65;;;2.10;99.90;;;;;;5074132;28;20028;-82
2021/01/31 09:30:22;;;;;;;22.92;14.10;;;2.20;99.90;;;;;;5087642;28;20028;-82
2021/01/31 09:32:54;;;;;;;21.25;13.32;;;2.20;99.90;;;;;;5076798;28;20036;-82
2021/01/31 09:35:29;;;;;;;17.95;11.40;;;2.20;99.90;;;;;;5074251;28;20478;-82
2021/01/31 09:38:12;;;;;;;19.73;12.52;;;2.20;99.90;;;;;;5074415;28;20033;-82
2021/01/31 09:40:40;;;;;;;18.65;12.57;;;2.30;99.90;;;;;;5074702;28;20024;-82
2021/01/31 09:43:08;;;;;;;21.80;12.10;;;2.40;99.90;;;;;;5077869;28;20047;-83
2021/01/31 09:45:43;;;;;;;20.15;12.13;;;2.40;99.90;;;;;;5073610;28;20377;-83
2021/01/31 09:48:17;;;;;;;21.00;13.38;;;2.40;99.90;;;;;;5079976;28;20037;-82
2021/01/31 09:50:49;;;;;;;24.98;15.02;;;2.40;99.90;;;;;;5073341;28;20028;-83
2021/01/31 09:53:40;;;;;;;20.33;12.27;;;2.50;99.90;;;;;;5087872;28;20040;-84
2021/01/31 09:56:08;;;;;;;19.42;11.98;;;2.50;99.90;;;;;;5074589;28;20052;-84
2021/01/31 09:58:42;;;;;;;22.58;13.43;;;2.60;99.90;;;;;;5084245;28;20032;-84
2021/01/31 10:01:31;;;;;;;21.02;13.90;;;2.60;99.90;;;;;;5085886;28;20037;-83
2021/01/31 10:04:04;;;;;;;18.75;12.00;;;2.60;99.90;;;;;;5075610;28;20035;-83
2021/01/31 10:06:55;;;;;;;21.10;13.07;;;2.60;99.90;;;;;;5073580;28;20036;-83
2021/01/31 10:09:31;;;;;;;19.15;13.15;;;2.60;99.90;;;;;;5087108;28;20458;-83
2021/01/31 10:12:26;;;;;;;19.77;12.88;;;2.70;99.90;;;;;;5092107;28;20032;-83
2021/01/31 10:15:11;;;;;;;18.42;12.98;;;2.70;99.90;;;;;;5075874;28;20036;-83
2021/01/31 10:17:42;;;;;;;18.33;12.48;;;2.80;99.90;;;;;;5073259;28;20500;-81
2021/01/31 10:20:23;;;;;;;;;;;2.80;99.90;;;;;;5073860;28;20032;-82
2021/01/31 10:22:50;;;;;;;18.38;11.52;;;2.90;99.90;;;;;;5078380;28;19915;-83
2021/01/31 10:25:16;;;;;;;18.73;11.95;;;2.80;99.90;;;;;;5087740;28;20036;-83
2021/01/31 10:27:45;;;;;;;17.67;11.45;;;2.90;99.90;;;;;;5072573;28;20036;-83
2021/01/31 10:30:23;;;;;;;19.17;12.30;;;2.90;99.90;;;;;;5087353;28;20029;-83
2021/01/31 10:32:50;;;;;;;17.73;11.35;;;2.90;99.90;;;;;;5072796;28;20044;-82
2021/01/31 10:35:30;;;;;;;20.20;11.43;;;2.90;99.90;;;;;;5088716;28;20055;-83
2021/01/31 10:37:58;;;;;;;16.88;11.45;;;2.90;99.90;;;;;;5092495;28;20400;-82
2021/01/31 10:40:24;;;;;;;20.33;12.35;;;2.90;99.90;;;;;;5087598;28;20501;-82
2021/01/31 10:42:51;;;;;;;17.00;11.70;;;2.90;99.90;;;;;;5072414;28;20044;-83
2021/01/31 10:45:24;;;;;;;18.15;11.43;;;2.90;99.90;;;;;;5087312;28;20044;-83
2021/01/31 10:47:50;;;;;;;20.25;11.57;;;2.90;99.90;;;;;;5087639;28;20028;-84
2021/01/31 10:50:19;;;;;;;17.42;10.90;;;2.80;99.90;;;;;;5087105;28;20043;-84
2021/01/31 10:52:46;;;;;;;20.17;12.35;;;2.90;99.90;;;;;;5072017;28;20032;-86
2021/01/31 10:55:13;;;;;;;20.55;12.57;;;2.90;99.90;;;;;;5076883;28;20039;-86
2021/01/31 10:57:40;;;;;;;17.75;11.88;;;3.00;99.90;;;;;;5081701;28;20036;-86
2021/01/31 11:00:08;;;;;;;19.80;12.48;;;3.00;99.90;;;;;;5080282;28;20609;-83
2021/01/31 11:02:35;;;;;;;20.10;13.88;;;3.00;99.90;;;;;;5080118;28;20039;-83
2021/01/31 11:05:03;;;;;;;21.30;12.77;;;3.00;99.90;;;;;;5072677;28;21593;-86
2021/01/31 11:07:29;;;;;;;21.17;14.00;;;3.10;99.90;;;;;;5076055;28;20032;-86
2021/01/31 11:09:55;;;;;;;21.77;13.93;;;3.10;99.90;;;;;;5090824;28;20028;-79
2021/01/31 11:12:21;;;;;;;18.23;12.10;;;3.20;99.90;;;;;;5076695;28;20043;-87
2021/01/31 11:14:48;;;;;;;20.13;13.73;;;3.30;99.90;;;;;;5071981;28;20032;-86
2021/01/31 11:17:14;;;;;;;18.88;12.05;;;3.30;99.90;;;;;;5072443;28;20462;-88
2021/01/31 11:19:40;;;;;;;17.90;11.80;;;3.30;99.90;;;;;;5071534;28;20047;-86
2021/01/31 11:22:06;;;;;;;20.02;12.15;;;3.30;99.90;;;;;;5086053;28;20032;-87
2021/01/31 11:24:33;;;;;;;17.77;11.80;;;3.30;99.90;;;;;;5071562;28;20032;-86
2021/01/31 11:27:00;;;;;;;28.02;18.38;;;3.30;99.90;;;;;;5071182;28;20047;-86
2021/01/31 11:29:27;;;;;;;31.73;21.95;;;3.30;99.90;;;;;;5084262;28;20028;-86
2021/01/31 11:31:53;;;;;;;23.00;14.25;;;3.40;99.90;;;;;;5088658;28;20474;-86
2021/01/31 11:34:19;;;;;;;20.52;12.80;;;3.40;99.90;;;;;;5078592;28;20040;-87
2021/01/31 11:36:45;;;;;;;19.98;13.20;;;3.40;99.90;;;;;;5084190;28;20040;-87
2021/01/31 11:39:12;;;;;;;19.02;12.48;;;3.30;99.90;;;;;;5072925;28;20040;-86
2021/01/31 11:41:38;;;;;;;23.85;14.13;;;3.20;99.90;;;;;;5070745;28;20036;-87
2021/01/31 11:44:07;;;;;;;19.92;13.18;;;3.20;99.90;;;;;;5082944;28;20037;-87
2021/01/31 11:46:34;;;;;;;21.92;13.77;;;3.10;99.90;;;;;;5072845;28;20033;-87
2021/01/31 11:49:01;;;;;;;18.02;11.63;;;3.20;99.90;;;;;;5086618;28;20052;-87
2021/01/31 11:51:27;;;;;;;21.60;13.52;;;3.20;99.90;;;;;;5087108;28;20051;-87
2021/01/31 11:53:54;;;;;;;20.58;13.48;;;3.30;99.90;;;;;;5080851;28;20024;-86
2021/01/31 11:56:21;;;;;;;18.52;11.82;;;3.30;99.90;;;;;;5082490;28;20033;-86
2021/01/31 11:58:47;;;;;;;19.00;12.18;;;3.30;99.90;;;;;;5073217;28;20032;-87
2021/01/31 12:01:14;;;;;;;20.85;13.30;;;3.30;99.90;;;;;;5073297;28;20463;-87
2021/01/31 12:03:45;;;;;;;18.60;12.63;;;3.30;99.90;;;;;;5091879;28;20032;-85
2021/01/31 12:06:11;;;;;;;18.65;12.80;;;3.40;99.90;;;;;;5092750;28;20035;-85
2021/01/31 12:08:38;;;;;;;19.95;12.00;;;3.40;99.90;;;;;;5074619;28;20131;-87
2021/01/31 12:11:06;;;;;;;25.08;14.52;;;3.50;99.90;;;;;;5073446;28;20029;-87
2021/01/31 12:13:32;;;;;;;19.02;12.00;;;3.50;99.90;;;;;;5084343;28;20037;-86
2021/01/31 12:15:58;;;;;;;18.70;11.35;;;3.60;99.90;;;;;;5081761;28;20044;-86
2021/01/31 12:18:25;;;;;;;17.00;11.63;;;3.60;99.90;;;;;;5075100;28;20370;-86
2021/01/31 12:20:52;;;;;;;21.75;12.90;;;3.60;99.90;;;;;;5073071;28;20040;-86
2021/01/31 12:23:18;;;;;;;17.55;11.85;;;3.60;99.90;;;;;;5074525;28;20031;-85
2021/01/31 12:25:45;;;;;;;18.75;11.95;;;3.50;99.90;;;;;;5072327;28;20779;-87
2021/01/31 12:28:12;;;;;;;21.35;13.85;;;3.50;99.90;;;;;;5058239;28;20045;-87
2021/01/31 12:30:39;;;;;;;17.55;11.77;;;3.60;99.90;;;;;;5087590;28;20040;-87
2021/01/31 12:33:05;;;;;;;22.42;14.68;;;3.50;99.90;;;;;;5089300;28;20044;-87
2021/01/31 12:35:32;;;;;;;15.85;10.98;;;3.60;99.90;;;;;;5094544;28;20044;-86
2021/01/31 12:37:58;;;;;;;19.63;13.02;;;3.60;99.90;;;;;;5079325;28;20362;-86
2021/01/31 12:40:27;;;;;;;16.17;11.38;;;3.60;99.90;;;;;;5072646;28;20067;-86
2021/01/31 12:42:53;;;;;;;19.85;12.30;;;3.50;99.90;;;;;;5075700;28;20032;-87
2021/01/31 12:45:22;;;;;;;17.58;10.95;;;3.60;99.90;;;;;;5076704;28;20031;-87
2021/01/31 12:47:48;;;;;;;15.55;10.40;;;3.60;99.90;;;;;;5092709;28;20036;-87
2021/01/31 12:50:17;;;;;;;17.58;11.13;;;3.60;99.90;;;;;;5071389;28;20044;-86
2021/01/31 12:52:43;;;;;;;18.35;11.02;;;3.60;99.90;;;;;;5077402;28;20032;-87
2021/01/31 12:55:12;;;;;;;17.05;10.90;;;3.60;99.90;;;;;;5080026;28;20036;-85
2021/01/31 12:57:38;;;;;;;16.52;11.15;;;3.70;99.90;;;;;;5095105;28;20035;-87
2021/01/31 13:00:07;;;;;;;17.35;11.02;;;3.60;99.90;;;;;;5083124;28;20061;-86
2021/01/31 13:02:34;;;;;;;18.10;12.48;;;3.60;99.90;;;;;;5089676;28;20462;-87
2021/01/31 13:05:00;;;;;;;18.67;12.50;;;3.70;99.90;;;;;;5074105;28;20040;-85
2021/01/31 13:07:26;;;;;;;19.88;11.63;;;3.80;99.90;;;;;;5087531;28;20466;-86
2021/01/31 13:09:53;;;;;;;18.13;12.13;;;3.80;99.90;;;;;;5075271;28;20040;-86